Time;durP1;ratioP1;P1;durP2;ratioP2;P2;SDS_P1;SDS_P2;PMS_P1;PMS_P2;Temp;Humidity;BMP_temperature;BMP_pressure;BME280_temperature;BME280_humidity;BME280_pressure;Samples;Min_cycle;Max_cycle;Signal;HPM_P1;HPM_P2
2023/04/09 00:01:01;;;;;;;;;;;;;;;7.55;100.00;100938.09;5040207;28;20041;-67
2023/04/09 00:03:26;;;;;;;;;;;;;;;7.59;100.00;100940.53;5057755;28;19995;-67
2023/04/09 00:05:53;;;;;;;;;;;;;;;7.62;100.00;100938.78;5052973;28;20011;-68
2023/04/09 00:08:18;;;;;;;;;;;;;;;7.46;100.00;100934.09;5052878;28;20436;-67
2023/04/09 00:10:43;;;;;;;;;;;;;;;7.40;100.00;100937.66;5044415;28;19916;-68
2023/04/09 00:13:09;;;;;;;;;;;;;;;7.37;100.00;100927.50;5061621;28;19928;-68
2023/04/09 00:15:34;;;;;;;;;;;;;;;7.38;100.00;100933.44;5049907;28;19925;-68
2023/04/09 00:17:59;;;;;;;;;;;;;;;7.43;100.00;100922.22;5051701;28;20368;-70
2023/04/09 00:20:24;;;;;;;;;;;;;;;7.46;100.00;100931.53;5039642;28;19920;-71
2023/04/09 00:22:50;;;;;;;;;;;;;;;7.46;100.00;100928.97;5038273;28;20379;-70
2023/04/09 00:25:15;;;;;;;;;;;;;;;7.42;100.00;100928.22;5052311;28;19921;-70
2023/04/09 00:27:41;;;;;;;;;;;;;;;7.46;100.00;100926.41;5052793;28;19924;-69
2023/04/09 00:30:06;;;;;;;;;;;;;;;7.57;100.00;100928.66;5056564;28;19923;-70
2023/04/09 00:32:31;;;;;;;;;;;;;;;7.64;100.00;100929.31;5057650;28;19917;-71
2023/04/09 00:34:57;;;;;;;;;;;;;;;7.63;100.00;100925.94;5053282;28;19920;-69
2023/04/09 00:37:22;;;;;;;;;;;;;;;7.66;100.00;100922.44;5049999;28;19928;-71
2023/04/09 00:39:47;;;;;;;;;;;;;;;7.70;100.00;100924.88;5046528;28;19936;-62
2023/04/09 00:42:12;;;;;;;;;;;;;;;7.69;100.00;100923.19;5053516;28;19940;-70
2023/04/09 00:44:37;;;;;;;;;;;;;;;7.74;100.00;100923.91;5052630;28;19915;-68
2023/04/09 00:47:03;;;;;;;;;;;;;;;7.71;100.00;100916.28;5050945;28;19917;-70
2023/04/09 00:49:28;;;;;;;;;;;;;;;7.60;100.00;100918.31;5067610;28;19912;-69
2023/04/09 00:51:53;;;;;;;;;;;;;;;7.66;100.00;100918.16;5056628;28;20043;-70
2023/04/09 00:54:18;;;;;;;;;;;;;;;7.67;100.00;100919.00;5054335;28;20337;-70
2023/04/09 00:56:44;;;;;;;;;;;;;;;7.66;100.00;100920.72;5052896;28;19913;-69
2023/04/09 00:59:09;;;;;;;;;;;;;;;7.66;100.00;100914.75;5054888;28;19916;-69
2023/04/09 01:01:34;;;;;;;;;;;;;;;7.70;100.00;100911.22;5054752;28;20402;-69
2023/04/09 01:04:00;;;;;;;;;;;;;;;7.58;100.00;100918.38;5077460;28;20296;-69
2023/04/09 01:06:44;;;;;;;;;;;;;;;7.57;100.00;100921.00;5067661;28;19923;-70
2023/04/09 01:09:16;;;;;;;;;;;;;;;7.53;100.00;100917.69;5061241;28;19912;-69
2023/04/09 01:11:55;;;;;;;;;;;;;;;7.45;100.00;100924.72;5068583;28;19938;-69
2023/04/09 01:14:39;;;;;;;;;;;;;;;7.47;100.00;100920.41;5067939;28;19913;-71
2023/04/09 01:17:11;;;;;;;;;;;;;;;7.42;100.00;100917.16;5058175;28;19968;-69
2023/04/09 01:19:55;;;;;;;;;;;;;;;7.35;100.00;100918.19;5063988;28;20372;-71
2023/04/09 01:22:41;;;;;;;;;;;;;;;7.29;100.00;100919.19;5054936;28;20026;-70
2023/04/09 01:25:22;;;;;;;;;;;;;;;7.25;100.00;100915.88;5061525;28;19917;-69
2023/04/09 01:27:58;;;;;;;;;;;;;;;7.28;100.00;100917.50;5065138;28;19916;-69
2023/04/09 01:30:25;;;;;;;;;;;;;;;7.27;100.00;100915.84;5055296;28;19921;-69
2023/04/09 01:32:51;;;;;;;;;;;;;;;7.31;100.00;100908.94;5076234;28;19913;-69
2023/04/09 01:35:17;;;;;;;;;;;;;;;7.28;100.00;100912.41;5076855;28;19937;-68
2023/04/09 01:37:42;;;;;;;;;;;;;;;7.29;100.00;100919.19;5071606;28;20379;-69
2023/04/09 01:40:08;;;;;;;;;;;;;;;7.28;100.00;100912.41;5053143;28;19915;-69
2023/04/09 01:42:34;;;;;;;;;;;;;;;7.27;100.00;100916.69;5082378;28;19952;-69
2023/04/09 01:45:00;;;;;;;;;;;;;;;7.26;100.00;100909.88;5072312;28;19908;-69
2023/04/09 01:47:26;;;;;;;;;;;;;;;7.23;100.00;100911.69;5054820;28;19924;-70
2023/04/09 01:49:51;;;;;;;;;;;;;;;7.13;100.00;100913.66;5066751;28;19970;-69
2023/04/09 01:52:16;;;;;;;;;;;;;;;7.13;100.00;100913.66;5070716;28;20282;-68
2023/04/09 01:54:42;;;;;;;;;;;;;;;7.08;100.00;100923.19;5061184;28;20370;-68
2023/04/09 01:57:07;;;;;;;;;;;;;;;6.97;100.00;100920.94;5051913;28;19999;-69
2023/04/09 01:59:32;;;;;;;;;;;;;;;6.89;100.00;100920.28;5066974;28;20019;-69
2023/04/09 02:02:00;;;;;;;;;;;;;;;6.85;100.00;100922.06;5043291;28;19989;-69
2023/04/09 02:04:37;;;;;;;;;;;;;;;6.74;100.00;100917.22;5052029;28;19920;-69
2023/04/09 02:07:02;;;;;;;;;;;;;;;6.61;100.00;100916.72;5052341;28;19923;-68
2023/04/09 02:09:29;;;;;;;;;;;;;;;6.48;100.00;100925.56;5050590;28;19916;-68
2023/04/09 02:11:57;;;;;;;;;;;;;;;6.35;100.00;100921.59;5056255;28;20078;-68
2023/04/09 02:14:25;;;;;;;;;;;;;;;6.22;100.00;100923.63;5050342;28;20384;-69
2023/04/09 02:16:50;;;;;;;;;;;;;;;6.23;100.00;100926.13;5069038;28;19918;-69
2023/04/09 02:19:15;;;;;;;;;;;;;;;6.12;100.00;100928.09;5083674;28;19946;-68
2023/04/09 02:21:41;;;;;;;;;;;;;;;6.08;100.00;100927.31;5069145;28;20311;-68
2023/04/09 02:24:06;;;;;;;;;;;;;;;6.04;100.00;100928.28;5065483;28;19939;-69
2023/04/09 02:26:31;;;;;;;;;;;;;;;5.91;100.00;100926.81;5071261;28;19958;-68
2023/04/09 02:28:56;;;;;;;;;;;;;;;5.89;100.00;100929.44;5086590;28;20007;-68
2023/04/09 02:31:21;;;;;;;;;;;;;;;5.82;100.00;100927.88;5071070;28;20044;-68
2023/04/09 02:33:46;;;;;;;;;;;;;;;5.72;100.00;100927.22;5076316;28;19920;-68
2023/04/09 02:36:12;;;;;;;;;;;;;;;5.70;100.00;100930.69;5070918;28;19967;-68
2023/04/09 02:38:41;;;;;;;;;;;;;;;5.62;100.00;100928.28;5071397;28;19924;-68
2023/04/09 02:41:06;;;;;;;;;;;;;;;5.64;100.00;100926.53;5061543;28;20006;-68
2023/04/09 02:43:31;;;;;;;;;;;;;;;5.63;100.00;100923.16;5069920;28;19951;-68
2023/04/09 02:45:57;;;;;;;;;;;;;;;5.62;100.00;100923.19;5069550;28;19920;-69
2023/04/09 02:48:22;;;;;;;;;;;;;;;5.52;100.00;100924.22;5070913;28;19962;-69
2023/04/09 02:50:47;;;;;;;;;;;;;;;5.50;100.00;100919.16;5065666;28;19999;-69
2023/04/09 02:53:12;;;;;;;;;;;;;;;5.52;100.00;100916.56;5070139;28;19969;-69
2023/04/09 02:55:37;;;;;;;;;;;;;;;5.56;100.00;100921.59;5068014;28;20375;-69
2023/04/09 02:58:02;;;;;;;;;;;;;;;5.43;100.00;100931.22;5051658;28;19971;-69
2023/04/09 03:00:28;;;;;;;;;;;;;;;5.42;100.00;100921.03;5058192;28;19917;-69
2023/04/09 03:02:53;;;;;;;;;;;;;;;5.35;100.00;100922.88;5037064;28;19919;-69
2023/04/09 03:05:18;;;;;;;;;;;;;;;5.28;100.00;100914.50;5051107;28;19995;-69
2023/04/09 03:07:43;;;;;;;;;;;;;;;5.15;100.00;100918.16;5050250;28;19912;-69
2023/04/09 03:10:09;;;;;;;;;;;;;;;5.07;100.00;100920.81;5041312;28;19998;-68
2023/04/09 03:12:34;;;;;;;;;;;;;;;4.96;100.00;100915.94;5049848;28;19920;-68
2023/04/09 03:14:59;;;;;;;;;;;;;;;4.83;100.00;100917.84;5064579;28;19912;-69
2023/04/09 03:17:26;;;;;;;;;;;;;;;4.82;100.00;100916.16;5056353;28;19970;-68
2023/04/09 03:19:51;;;;;;;;;;;;;;;4.67;100.00;100914.72;5050597;28;19920;-68
2023/04/09 03:22:16;;;;;;;;;;;;;;;4.64;100.00;100909.69;5056509;28;20287;-68
2023/04/09 03:24:41;;;;;;;;;;;;;;;4.50;100.00;100909.94;5052509;28;19917;-69
2023/04/09 03:27:07;;;;;;;;;;;;;;;4.43;100.00;100908.34;5053721;28;19913;-68
2023/04/09 03:29:32;;;;;;;;;;;;;;;4.37;100.00;100908.44;5054475;28;19962;-68
2023/04/09 03:31:57;;;;;;;;;;;;;;;4.26;100.00;100908.59;5039136;28;19964;-68
2023/04/09 03:34:23;;;;;;;;;;;;;;;4.16;100.00;100901.97;5054291;28;19923;-69
2023/04/09 03:36:48;;;;;;;;;;;;;;;4.10;100.00;100905.44;5064580;28;20291;-67
2023/04/09 03:39:13;;;;;;;;;;;;;;;3.98;100.00;100905.63;5054342;28;19913;-68
2023/04/09 03:41:39;;;;;;;;;;;;;;;3.96;100.00;100899.72;5062936;28;19917;-67
2023/04/09 03:44:04;;;;;;;;;;;;;;;3.87;100.00;100896.44;5053433;28;19913;-68
2023/04/09 03:46:29;;;;;;;;;;;;;;;3.83;100.00;100899.91;5053093;28;20115;-68
2023/04/09 03:48:54;;;;;;;;;;;;;;;3.75;100.00;100901.69;5052672;28;19920;-68
2023/04/09 03:51:19;;;;;;;;;;;;;;;3.70;100.00;100900.91;5054769;28;19948;-67
2023/04/09 03:53:45;;;;;;;;;;;;;;;3.63;100.00;100901.84;5060571;28;19912;-68
2023/04/09 03:56:10;;;;;;;;;;;;;;;3.55;100.00;100901.97;5054422;28;19912;-69
2023/04/09 03:58:35;;;;;;;;;;;;;;;3.49;100.00;100902.03;5069484;28;20030;-68
2023/04/09 04:01:00;;;;;;;;;;;;;;;3.47;100.00;100904.56;5051267;27;19960;-68
2023/04/09 04:03:26;;;;;;;;;;;;;;;3.44;100.00;100902.09;5061598;28;19917;-67
2023/04/09 04:05:51;;;;;;;;;;;;;;;3.37;100.00;100901.31;5054123;28;20279;-68
2023/04/09 04:08:16;;;;;;;;;;;;;;;3.42;100.00;100906.34;5054292;28;19912;-68
2023/04/09 04:10:41;;;;;;;;;;;;;;;3.38;100.00;100902.16;5048370;28;19962;-68
2023/04/09 04:13:07;;;;;;;;;;;;;;;3.35;100.00;100894.53;5064479;28;19999;-68
2023/04/09 04:15:32;;;;;;;;;;;;;;;3.33;100.00;100903.91;5054106;28;19982;-68
2023/04/09 04:17:57;;;;;;;;;;;;;;;3.24;100.00;100899.78;5053612;28;19917;-69
2023/04/09 04:20:23;;;;;;;;;;;;;;;3.21;100.00;100910.81;5045626;28;20014;-69
2023/04/09 04:22:48;;;;;;;;;;;;;;;3.16;100.00;100919.34;5052804;28;19913;-68
2023/04/09 04:25:13;;;;;;;;;;;;;;;3.07;100.00;100913.50;5053909;28;19913;-68
2023/04/09 04:27:41;;;;;;;;;;;;;;;3.00;100.00;100916.97;5053753;28;20053;-68
2023/04/09 04:30:07;;;;;;;;;;;;;;;2.98;100.00;100918.69;5043621;28;19940;-67
2023/04/09 04:32:32;;;;;;;;;;;;;;;2.88;100.00;100919.63;5052103;28;20356;-67
2023/04/09 04:34:57;;;;;;;;;;;;;;;2.84;100.00;100915.41;5068282;28;19912;-67
2023/04/09 04:37:22;;;;;;;;;;;;;;;2.83;100.00;100918.81;5066691;28;20041;-68
2023/04/09 04:39:47;;;;;;;;;;;;;;;2.84;100.00;100912.88;5066437;28;19913;-68
2023/04/09 04:42:13;;;;;;;;;;;;;;;2.81;100.00;100921.38;5058827;28;19977;-68
2023/04/09 04:44:38;;;;;;;;;;;;;;;2.79;100.00;100923.13;5053319;28;20317;-67
2023/04/09 04:47:03;;;;;;;;;;;;;;;2.79;100.00;100924.78;5051956;28;19991;-68
2023/04/09 04:49:29;;;;;;;;;;;;;;;2.75;100.00;100926.50;5072259;28;20373;-68
2023/04/09 04:51:54;;;;;;;;;;;;;;;2.70;100.00;100920.63;5077528;27;19962;-68
2023/04/09 04:54:19;;;;;;;;;;;;;;;2.69;100.00;100919.81;5073594;28;20367;-68
2023/04/09 04:56:44;;;;;;;;;;;;;;;2.67;100.00;100920.69;5088556;28;19918;-68
2023/04/09 04:59:09;;;;;;;;;;;;;;;2.67;100.00;100920.69;5065784;28;20360;-68
2023/04/09 05:01:35;;;;;;;;;;;;;;;2.64;100.00;100923.22;5066970;28;19966;-69
2023/04/09 05:04:01;;;;;;;;;;;;;;;2.62;100.00;100928.31;5041120;28;19956;-68
2023/04/09 05:06:28;;;;;;;;;;;;;;;2.70;100.00;100929.09;5065412;28;19917;-68
2023/04/09 05:08:56;;;;;;;;;;;;;;;2.67;100.00;100930.84;5072004;28;19944;-67
2023/04/09 05:11:22;;;;;;;;;;;;;;;2.67;100.00;100928.31;5064432;28;20011;-67
2023/04/09 05:13:47;;;;;;;;;;;;;;;2.70;100.00;100926.53;5077558;28;20015;-67
2023/04/09 05:16:16;;;;;;;;;;;;;;;2.78;100.00;100928.19;5072674;28;19916;-68
2023/04/09 05:18:41;;;;;;;;;;;;;;;2.81;100.00;100931.53;5048375;28;19969;-69
2023/04/09 05:21:06;;;;;;;;;;;;;;;2.86;100.00;100928.97;5063219;28;20006;-68
2023/04/09 05:23:31;;;;;;;;;;;;;;;2.94;100.00;100936.50;5070245;28;19919;-68
2023/04/09 05:25:57;;;;;;;;;;;;;;;3.01;100.00;100935.59;5070557;28;19912;-67
2023/04/09 05:28:22;;;;;;;;;;;;;;;3.05;100.00;100930.47;5071475;28;20360;-68
2023/04/09 05:30:47;;;;;;;;;;;;;;;3.13;100.00;100932.09;5066746;28;19920;-68
2023/04/09 05:33:12;;;;;;;;;;;;;;;3.17;100.00;100936.28;5075361;28;20011;-68
2023/04/09 05:35:38;;;;;;;;;;;;;;;3.24;100.00;100930.28;5051364;28;19917;-68
2023/04/09 05:38:03;;;;;;;;;;;;;;;3.35;100.00;100941.19;5052906;28;20257;-68
2023/04/09 05:40:28;;;;;;;;;;;;;;;3.36;100.00;100935.25;5045145;28;20269;-68
2023/04/09 05:42:53;;;;;;;;;;;;;;;3.51;100.00;100935.91;5077493;28;20003;-68
2023/04/09 05:45:18;;;;;;;;;;;;;;;3.64;100.00;100931.53;5052358;28;19957;-68
2023/04/09 05:47:44;;;;;;;;;;;;;;;3.76;100.00;100936.47;5052026;28;19991;-68
2023/04/09 05:50:09;;;;;;;;;;;;;;;3.76;100.00;100939.00;5042675;28;19916;-68
2023/04/09 05:52:34;;;;;;;;;;;;;;;3.87;100.00;100933.78;5066641;28;19944;-67
2023/04/09 05:54:59;;;;;;;;;;;;;;;4.01;100.00;100936.97;5052410;28;19916;-67
2023/04/09 05:57:25;;;;;;;;;;;;;;;4.24;100.00;100937.50;5065392;28;19920;-67
2023/04/09 05:59:50;;;;;;;;;;;;;;;4.37;100.00;100933.91;5050720;28;20407;-67
2023/04/09 06:02:15;;;;;;;;;;;;;;;4.59;100.00;100941.19;5063282;28;19977;-67
2023/04/09 06:04:40;;;;;;;;;;;;;;;4.67;100.00;100939.38;5060674;28;20420;-68
2023/04/09 06:07:05;;;;;;;;;;;;;;;4.88;100.00;100935.63;5052190;28;19970;-67
2023/04/09 06:09:30;;;;;;;;;;;;;;;5.00;100.00;100925.22;5051786;28;19916;-68
2023/04/09 06:11:56;;;;;;;;;;;;;;;5.13;100.00;100933.47;5073861;28;20406;-68
2023/04/09 06:14:21;;;;;;;;;;;;;;;5.34;100.00;100933.94;5070236;28;19916;-68
2023/04/09 06:16:46;;;;;;;;;;;;;;;5.66;100.00;100933.28;5070614;28;20266;-68
2023/04/09 06:19:12;;;;;;;;;;;;;;;5.87;100.00;100941.38;5067267;28;19916;-68
2023/04/09 06:21:37;;;;;;;;;;;;;;;6.08;100.00;100942.66;5056448;28;19921;-68
2023/04/09 06:24:02;;;;;;;;;;;;;;;6.25;100.00;100931.19;5059826;28;19963;-68
2023/04/09 06:26:27;;;;;;;;;;;;;;;6.42;100.00;100934.19;5055447;28;19928;-69
2023/04/09 06:28:52;;;;;;;;;;;;;;;6.49;100.00;100928.94;5060344;28;20331;-70
2023/04/09 06:31:18;;;;;;;;;;;;;;;6.62;100.00;100937.97;5054183;28;19924;-69
2023/04/09 06:33:43;;;;;;;;;;;;;;;6.68;100.00;100930.16;5078699;28;20413;-70
2023/04/09 06:36:08;;;;;;;;;;;;;;;6.82;100.00;100939.22;5055328;28;20360;-70
2023/04/09 06:38:33;;;;;;;;;;;;;;;6.87;100.00;100937.38;5067140;28;19920;-70
2023/04/09 06:40:58;;;;;;;;;;;;;;;6.89;100.00;100944.13;5043506;28;20379;-70
2023/04/09 06:43:24;;;;;;;;;;;;;;;7.31;100.00;100953.28;5048365;28;19913;-70
2023/04/09 06:45:49;;;;;;;;;;;;;;;7.84;100.00;100949.22;5052578;28;19921;-70
2023/04/09 06:48:14;;;;;;;;;;;;;;;8.28;100.00;100943.66;5051560;28;20048;-73
2023/04/09 06:50:39;;;;;;;;;;;;;;;9.53;100.00;100942.00;5046560;28;19920;-71
2023/04/09 06:53:05;;;;;;;;;;;;;;;11.20;100.00;100940.53;5062184;28;19920;-69
2023/04/09 06:55:30;;;;;;;;;;;;;;;11.51;97.00;100946.91;5055271;28;20422;-70
2023/04/09 06:57:55;;;;;;;;;;;;;;;11.75;94.46;100937.22;5054233;28;19917;-70
2023/04/09 07:00:21;;;;;;;;;;;;;;;13.27;84.00;100939.34;5035894;28;19920;-70
2023/04/09 07:02:47;;;;;;;;;;;;;;;13.96;76.73;100935.66;5057808;28;19917;-71
2023/04/09 07:05:12;;;;;;;;;;;;;;;13.81;78.28;100941.69;5058812;28;19920;-73
2023/04/09 07:07:37;;;;;;;;;;;;;;;13.99;75.70;100938.06;5055639;28;19924;-73
2023/04/09 07:10:02;;;;;;;;;;;;;;;14.52;70.93;100940.28;5051866;28;19916;-74
2023/04/09 07:12:28;;;;;;;;;;;;;;;15.67;61.73;100934.31;5067593;28;19931;-73
2023/04/09 07:14:59;;;;;;;;;;;;;;;15.76;59.75;100944.09;5058922;28;20003;-74
2023/04/09 07:17:25;;;;;;;;;;;;;;;15.61;58.96;100940.72;5062480;28;20079;-73
2023/04/09 07:19:53;;;;;;;;;;;;;;;14.89;66.08;100940.75;5056634;28;20046;-75
2023/04/09 07:22:20;;;;;;;;;;;;;;;15.31;60.44;100946.88;5062758;28;19928;-74
2023/04/09 07:24:45;;;;;;;;;;;;;;;13.86;72.68;100947.41;5059347;28;19908;-74
2023/04/09 07:27:11;;;;;;;;;;;;;;;12.17;86.39;100944.78;5057449;28;19920;-73
2023/04/09 07:29:36;;;;;;;;;;;;;;;12.51;89.78;100943.97;5059387;28;19916;-74
2023/04/09 07:32:02;;;;;;;;;;;;;;;14.22;77.46;100940.28;5041965;28;20698;-74
2023/04/09 07:34:27;;;;;;;;;;;;;;;14.03;71.94;100947.31;5057025;28;19971;-74
2023/04/09 07:36:52;;;;;;;;;;;;;;;14.05;74.22;100947.22;5055048;28;19948;-74
2023/04/09 07:39:18;;;;;;;;;;;;;;;14.54;67.48;100948.81;5069642;28;19966;-74
2023/04/09 07:41:43;;;;;;;;;;;;;;;15.27;65.60;100947.13;5058119;28;19920;-74
2023/04/09 07:44:08;;;;;;;;;;;;;;;15.77;59.14;100950.97;5057233;28;19917;-74
2023/04/09 07:46:34;;;;;;;;;;;;;;;14.80;62.56;100954.25;5054098;28;19917;-74
2023/04/09 07:48:59;;;;;;;;;;;;;;;15.07;65.71;100946.59;5053981;28;19916;-74
2023/04/09 07:51:24;;;;;;;;;;;;;;;14.33;66.62;100949.09;5054861;28;20268;-73
2023/04/09 07:53:49;;;;;;;;;;;;;;;14.05;72.22;100947.22;5060196;28;19913;-73
2023/04/09 07:56:14;;;;;;;;;;;;;;;14.14;71.48;100949.31;5054825;28;19924;-73
2023/04/09 07:58:40;;;;;;;;;;;;;;;14.66;67.58;100953.31;5054906;28;19912;-74
2023/04/09 08:01:05;;;;;;;;;;;;;;;14.93;63.97;100960.34;5052012;28;19923;-74
2023/04/09 08:03:30;;;;;;;;;;;;;;;14.59;66.89;100951.97;5061616;28;20399;-75
2023/04/09 08:05:55;;;;;;;;;;;;;;;14.33;71.44;100959.44;5054449;28;19912;-74
2023/04/09 08:08:21;;;;;;;;;;;;;;;14.73;71.69;100960.72;5055055;28;19916;-72
2023/04/09 08:10:46;;;;;;;;;;;;;;;15.09;65.73;100960.28;5048792;28;20287;-75
2023/04/09 08:13:12;;;;;;;;;;;;;;;15.52;64.03;100961.19;5064146;28;20376;-75
2023/04/09 08:15:37;;;;;;;;;;;;;;;14.54;69.07;100951.41;5054282;28;19936;-74
2023/04/09 08:18:02;;;;;;;;;;;;;;;14.60;68.56;100952.78;5053525;28;19982;-75
2023/04/09 08:20:28;;;;;;;;;;;;;;;14.92;66.38;100955.28;5051490;28;20030;-75
2023/04/09 08:22:53;;;;;;;;;;;;;;;14.84;65.51;100961.75;5071849;28;19916;-75
2023/04/09 08:25:18;;;;;;;;;;;;;;;14.85;66.58;100953.03;5074104;28;19920;-74
2023/04/09 08:27:43;;;;;;;;;;;;;;;14.47;67.63;100960.44;5072878;28;19936;-73
2023/04/09 08:30:09;;;;;;;;;;;;;;;15.68;60.93;100964.53;5079086;28;20390;-74
2023/04/09 08:32:35;;;;;;;;;;;;;;;15.83;58.99;100967.94;5054246;28;19920;-74
2023/04/09 08:35:00;;;;;;;;;;;;;;;15.90;58.24;100969.22;5054065;28;20390;-74
2023/04/09 08:37:25;;;;;;;;;;;;;;;16.17;60.07;100970.97;5052404;28;19919;-74
2023/04/09 08:39:50;;;;;;;;;;;;;;;16.06;58.51;100976.03;5068963;28;20008;-74
2023/04/09 08:42:16;;;;;;;;;;;;;;;16.76;52.49;100973.19;5059385;28;20264;-73
2023/04/09 08:44:42;;;;;;;;;;;;;;;16.84;52.80;100977.88;5051683;28;19913;-74
2023/04/09 08:47:10;;;;;;;;;;;;;;;15.83;57.94;100983.50;5053301;28;19931;-74
2023/04/09 08:49:35;;;;;;;;;;;;;;;15.63;61.29;100977.75;5065331;28;19947;-75
2023/04/09 08:52:01;;;;;;;;;;;;;;;17.07;52.91;100973.75;5081237;28;20390;-73
2023/04/09 08:54:26;;;;;;;;;;;;;;;16.74;51.82;100971.63;5071496;28;19941;-72
2023/04/09 08:56:51;;;;;;;;;;;;;;;16.86;56.28;100976.00;5072160;28;19919;-73
2023/04/09 08:59:20;;;;;;;;;;;;;;;18.93;46.91;100973.56;5069843;28;19947;-73
2023/04/09 09:01:48;;;;;;;;;;;;;;;18.32;46.95;100981.53;5073087;28;19923;-73
2023/04/09 09:04:13;;;;;;;;;;;;;;;17.94;46.16;100978.19;5053775;28;19912;-73
2023/04/09 09:06:39;;;;;;;;;;;;;;;16.92;50.40;100978.22;5072118;28;19970;-74
2023/04/09 09:09:09;;;;;;;;;;;;;;;16.88;51.42;100978.50;5072811;28;19924;-73
2023/04/09 09:11:35;;;;;;;;;;;;;;;19.06;44.77;100985.66;5073946;28;19920;-74
2023/04/09 09:14:05;;;;;;;;;;;;;;;19.11;43.86;100981.75;5076350;28;19912;-74
2023/04/09 09:16:32;;;;;;;;;;;;;;;19.24;45.10;100979.03;5072095;28;19925;-73
2023/04/09 09:18:57;;;;;;;;;;;;;;;18.97;42.22;100982.81;5070447;28;20291;-73
2023/04/09 09:21:23;;;;;;;;;;;;;;;19.12;42.72;100982.59;5072057;28;19923;-72
2023/04/09 09:23:49;;;;;;;;;;;;;;;18.57;44.27;100977.13;5077264;28;19923;-70
2023/04/09 09:26:16;;;;;;;;;;;;;;;18.54;44.44;100979.03;5071351;28;19928;-70
2023/04/09 09:28:42;;;;;;;;;;;;;;;19.00;42.81;100981.75;5070417;28;19970;-70
2023/04/09 09:31:08;;;;;;;;;;;;;;;18.78;42.16;100983.34;5068582;28;19948;-72
2023/04/09 09:33:33;;;;;;;;;;;;;;;17.98;44.55;100982.22;5078829;28;20128;-71
2023/04/09 09:35:58;;;;;;;;;;;;;;;17.65;47.07;100982.81;5070251;28;20426;-71
2023/04/09 09:38:23;;;;;;;;;;;;;;;17.61;46.33;100977.00;5060961;28;20339;-71
2023/04/09 09:40:49;;;;;;;;;;;;;;;18.64;44.91;100979.19;5052440;28;19916;-72
2023/04/09 09:43:14;;;;;;;;;;;;;;;20.09;41.82;100982.00;5061721;28;19913;-72
2023/04/09 09:45:40;;;;;;;;;;;;;;;19.75;41.07;100975.06;5069049;28;19965;-72
2023/04/09 09:48:06;;;;;;;;;;;;;;;21.74;39.41;100976.03;5064011;28;19913;-73
2023/04/09 09:50:34;;;;;;;;;;;;;;;21.37;37.99;100975.75;5045290;28;19920;-73
2023/04/09 09:53:04;;;;;;;;;;;;;;;20.71;37.94;100969.09;5063553;28;20390;-73
2023/04/09 09:55:33;;;;;;;;;;;;;;;20.54;38.61;100965.28;5052597;28;19920;-73
2023/04/09 09:58:06;;;;;;;;;;;;;;;21.62;37.14;100963.19;5052379;28;19917;-72
2023/04/09 10:00:31;;;;;;;;;;;;;;;19.43;40.14;100969.78;5041380;28;19952;-73
2023/04/09 10:03:06;;;;;;;;;;;;;;;17.61;44.62;100966.59;5050946;28;19959;-73
2023/04/09 10:05:35;;;;;;;;;;;;;;;18.16;44.24;100961.00;5085988;28;19912;-73
2023/04/09 10:08:01;;;;;;;;;;;;;;;18.57;44.10;100951.91;5071730;28;20371;-73
2023/04/09 10:10:27;;;;;;;;;;;;;;;20.76;40.25;100949.50;5062781;28;19916;-73
2023/04/09 10:12:52;;;;;;;;;;;;;;;21.58;39.01;100945.16;5083951;28;20429;-73
2023/04/09 10:15:18;;;;;;;;;;;;;;;21.40;37.75;100944.94;5070635;28;19917;-73
2023/04/09 10:17:43;;;;;;;;;;;;;;;20.48;39.14;100950.97;5070165;28;19923;-73
2023/04/09 10:20:11;;;;;;;;;;;;;;;20.02;37.49;100944.28;5059477;28;19916;-73
2023/04/09 10:22:36;;;;;;;;;;;;;;;20.20;38.46;100945.38;5085984;28;19944;-73
2023/04/09 10:25:02;;;;;;;;;;;;;;;17.21;44.80;100948.59;5069836;28;19955;-72
2023/04/09 10:27:27;;;;;;;;;;;;;;;17.93;44.45;100936.63;5071758;28;20376;-73
2023/04/09 10:29:53;;;;;;;;;;;;;;;18.89;41.51;100933.03;5070003;28;19961;-73
2023/04/09 10:32:22;;;;;;;;;;;;;;;17.23;43.79;100934.53;5076960;28;19920;-72
2023/04/09 10:34:49;;;;;;;;;;;;;;;15.72;51.39;100936.63;5061858;28;20444;-73
2023/04/09 10:37:22;;;;;;;;;;;;;;;15.84;52.27;100941.06;5075882;28;20303;-73
2023/04/09 10:39:48;;;;;;;;;;;;;;;15.28;54.28;100931.50;5062282;28;19919;-73
2023/04/09 10:42:15;;;;;;;;;;;;;;;14.91;56.38;100936.31;5067182;28;20355;-73
2023/04/09 10:44:41;;;;;;;;;;;;;;;14.58;57.95;100936.53;5055627;28;19913;-74
2023/04/09 10:47:07;;;;;;;;;;;;;;;14.33;60.57;100925.81;5055492;28;19970;-74
2023/04/09 10:49:39;;;;;;;;;;;;;;;14.18;60.42;100929.28;5042027;28;19920;-74
2023/04/09 10:52:09;;;;;;;;;;;;;;;13.88;63.51;100930.06;5061180;28;19920;-73
2023/04/09 10:54:35;;;;;;;;;;;;;;;13.33;64.72;100933.84;5055465;28;19996;-71
2023/04/09 10:57:05;;;;;;;;;;;;;;;13.23;66.56;100934.34;5070062;28;19948;-73
2023/04/09 10:59:31;;;;;;;;;;;;;;;14.03;64.14;100938.75;5073424;28;19920;-74
2023/04/09 11:01:59;;;;;;;;;;;;;;;14.50;52.80;100930.03;5052815;28;19916;-73
2023/04/09 11:04:31;;;;;;;;;;;;;;;14.48;52.49;100928.44;5054581;28;19913;-72
2023/04/09 11:06:56;;;;;;;;;;;;;;;14.21;52.04;100926.50;5075089;28;19955;-74
2023/04/09 11:09:21;;;;;;;;;;;;;;;14.20;51.50;100928.28;5074848;28;19960;-74
2023/04/09 11:11:52;;;;;;;;;;;;;;;14.18;50.49;100922.34;5061495;28;19920;-73
2023/04/09 11:14:18;;;;;;;;;;;;;;;14.15;53.80;100922.53;5053998;28;19966;-73
2023/04/09 11:16:46;;;;;;;;;;;;;;;14.44;45.80;100917.44;5058250;28;20330;-72
2023/04/09 11:19:11;;;;;;;;;;;;;;;14.26;46.51;100921.91;5056502;28;19971;-72
2023/04/09 11:21:36;;;;;;;;;;;;;;;14.87;47.33;100918.47;5061383;28;19924;-74
2023/04/09 11:24:01;;;;;;;;;;;;;;;15.24;44.33;100918.81;5078207;28;19962;-74
2023/04/09 11:26:34;;;;;;;;;;;;;;;15.30;44.09;100914.09;5073097;28;19969;-73
2023/04/09 11:29:03;;;;;;;;;;;;;;;14.90;42.13;100908.75;5062346;28;19917;-74
2023/04/09 11:31:28;;;;;;;;;;;;;;;14.52;44.08;100912.66;5053208;28;19927;-73
2023/04/09 11:33:54;;;;;;;;;;;;;;;14.47;41.80;100917.25;5060576;28;19917;-73
2023/04/09 11:36:20;;;;;;;;;;;;;;;14.79;43.44;100904.19;5067920;28;19966;-73
2023/04/09 11:38:47;;;;;;;;;;;;;;;14.87;44.21;100914.09;5054233;28;19917;-72
2023/04/09 11:41:13;;;;;;;;;;;;;;;14.45;45.40;100915.66;5053624;28;19999;-73
2023/04/09 11:43:38;;;;;;;;;;;;;;;13.98;43.23;100914.84;5069722;28;19952;-73
2023/04/09 11:46:04;;;;;;;;;;;;;;;13.93;42.74;100914.28;5053546;28;20348;-73
2023/04/09 11:48:29;;;;;;;;;;;;;;;14.09;43.51;100912.53;5065983;28;20009;-72
2023/04/09 11:50:54;;;;;;;;;;;;;;;14.75;43.80;100907.91;5069644;28;19974;-73
2023/04/09 11:53:20;;;;;;;;;;;;;;;14.09;44.21;100922.03;5082774;28;19923;-73
2023/04/09 11:55:47;;;;;;;;;;;;;;;13.80;46.15;100914.97;5073213;28;19995;-73
2023/04/09 11:58:12;;;;;;;;;;;;;;;13.69;46.03;100904.38;5089341;28;19913;-74
2023/04/09 12:00:39;;;;;;;;;;;;;;;14.00;46.26;100908.72;5058655;28;19920;-74
2023/04/09 12:03:04;;;;;;;;;;;;;;;13.78;46.06;100906.47;5067415;28;20034;-73
2023/04/09 12:05:30;;;;;;;;;;;;;;;13.77;48.70;100907.38;5054040;28;20279;-73
2023/04/09 12:08:00;;;;;;;;;;;;;;;13.74;50.69;100907.53;5054474;28;19912;-74
2023/04/09 12:10:29;;;;;;;;;;;;;;;14.36;53.65;100909.28;5046733;28;20002;-72
2023/04/09 12:12:55;;;;;;;;;;;;;;;14.36;47.48;100904.94;5053431;28;20310;-73
2023/04/09 12:15:21;;;;;;;;;;;;;;;14.68;47.43;100910.00;5069790;28;19990;-73
2023/04/09 12:17:48;;;;;;;;;;;;;;;14.90;47.37;100911.34;5064755;28;19916;-74
2023/04/09 12:20:13;;;;;;;;;;;;;;;14.27;44.57;100905.47;5045217;28;19912;-72
2023/04/09 12:22:40;;;;;;;;;;;;;;;14.51;46.09;100902.38;5060968;28;19943;-73
2023/04/09 12:25:05;;;;;;;;;;;;;;;14.51;47.66;100900.63;5051856;28;19913;-73
2023/04/09 12:27:31;;;;;;;;;;;;;;;14.51;48.40;100903.22;5049397;28;19917;-73
2023/04/09 12:29:56;;;;;;;;;;;;;;;14.83;48.62;100895.34;5047620;28;19916;-73